Time,TemperatureF,DewpointF,PressureIn,WindDirection,WindDirectionDegrees,WindSpeedMPH,WindSpeedGustMPH,Humidity,HourlyPrecipIn,Conditions,Clouds,dailyrainin,SoftwareType,DateUTC
2013-02-14 00:01:00,24.0,19.0,-100.00,SSW,203,3.0,7.0,82,-99.99,,,-99.99,,2013-02-14 07:01:00,
2013-02-14 00:11:00,24.0,19.0,-100.00,SSW,203,3.0,7.0,82,-99.99,,,-99.99,,2013-02-14 07:11:00,
2013-02-14 00:52:00,23.0,18.0,-100.00,WNW,292,4.0,7.0,79,-99.99,,,-99.99,,2013-02-14 07:52:00,
2013-02-14 01:01:00,23.0,18.0,-100.00,WNW,292,4.0,7.0,79,-99.99,,,-99.99,,2013-02-14 08:01:00,
2013-02-14 01:11:00,23.0,18.0,-100.00,WNW,292,4.0,7.0,79,-99.99,,,-99.99,,2013-02-14 08:11:00,
2013-02-14 01:52:00,23.0,17.0,-100.00,West,268,6.0,10.0,79,-99.99,,,-99.99,,2013-02-14 08:52:00,
2013-02-14 02:01:00,23.0,17.0,-100.00,West,268,6.0,10.0,79,-99.99,,,-99.99,,2013-02-14 09:01:00,
2013-02-14 02:11:00,23.0,17.0,-100.00,West,268,6.0,10.0,79,-99.99,,,-99.99,,2013-02-14 09:11:00,
2013-02-14 02:52:00,22.0,17.0,-100.00,NW,305,3.0,5.0,80,-99.99,,,-99.99,,2013-02-14 09:52:00,
2013-02-14 03:02:00,22.0,17.0,-100.00,NW,305,3.0,5.0,80,-99.99,,,-99.99,,2013-02-14 10:02:00,
2013-02-14 03:11:00,22.0,17.0,-100.00,NW,305,3.0,5.0,80,-99.99,,,-99.99,,2013-02-14 10:11:00,
2013-02-14 03:52:00,21.0,15.0,-100.00,WNW,301,2.0,3.0,77,-99.99,,,-99.99,,2013-02-14 10:52:00,
2013-02-14 04:01:00,21.0,15.0,-100.00,WNW,301,2.0,3.0,77,-99.99,,,-99.99,,2013-02-14 11:01:00,
2013-02-14 04:11:00,21.0,15.0,-100.00,WNW,301,2.0,3.0,77,-99.99,,,-99.99,,2013-02-14 11:11:00,
2013-02-14 04:52:00,18.0,13.0,-100.00,NW,314,4.0,6.0,80,-99.99,,,-99.99,,2013-02-14 11:52:00,
2013-02-14 05:01:00,18.0,13.0,-100.00,NW,314,4.0,6.0,80,-99.99,,,-99.99,,2013-02-14 12:01:00,
2013-02-14 05:11:00,18.0,13.0,-100.00,NW,314,4.0,6.0,80,-99.99,,,-99.99,,2013-02-14 12:11:00,
2013-02-14 05:53:00,13.0,10.0,-100.00,ENE,70,2.0,3.0,86,-99.99,,,-99.99,,2013-02-14 12:53:00,
2013-02-14 06:01:00,13.0,10.0,-100.00,ENE,70,2.0,3.0,86,-99.99,,,-99.99,,2013-02-14 13:01:00,
2013-02-14 06:11:00,13.0,10.0,-100.00,ENE,70,2.0,3.0,86,-99.99,,,-99.99,,2013-02-14 13:11:00,
2013-02-14 06:51:00,7.0,4.0,-100.00,ENE,70,1.0,2.0,87,-99.99,,,-99.99,,2013-02-14 13:51:00,
2013-02-14 07:01:00,7.0,4.0,-100.00,ENE,70,1.0,2.0,87,-99.99,,,-99.99,,2013-02-14 14:01:00,
2013-02-14 07:11:00,7.0,4.0,-100.00,ENE,70,1.0,2.0,87,-99.99,,,-99.99,,2013-02-14 14:11:00,
2013-02-14 07:52:00,2.0,-1.0,-100.00,SE,135,3.0,3.0,84,-99.99,,,-99.99,,2013-02-14 14:52:00,
2013-02-14 08:01:00,2.0,-1.0,-100.00,SE,135,3.0,3.0,84,-99.99,,,-99.99,,2013-02-14 15:01:00,
2013-02-14 08:52:00,8.0,3.0,-100.00,South,187,2.0,3.0,80,-99.99,,,-99.99,,2013-02-14 15:52:00,
2013-02-14 09:01:00,8.0,3.0,-100.00,South,187,2.0,3.0,80,-99.99,,,-99.99,,2013-02-14 16:01:00,
2013-02-14 09:11:00,8.0,3.0,-100.00,South,187,2.0,3.0,80,-99.99,,,-99.99,,2013-02-14 16:11:00,
2013-02-14 09:52:00,18.0,11.0,-100.00,SW,224,0.0,0.0,73,-99.99,,,-99.99,,2013-02-14 16:52:00,
2013-02-14 10:01:00,18.0,11.0,-100.00,SW,224,0.0,0.0,73,-99.99,,,-99.99,,2013-02-14 17:01:00,
2013-02-14 10:11:00,18.0,11.0,-100.00,SW,224,0.0,0.0,73,-99.99,,,-99.99,,2013-02-14 17:11:00,
2013-02-14 10:52:00,22.0,12.0,-100.00,West,268,8.0,11.0,63,-99.99,,,-99.99,,2013-02-14 17:52:00,
2013-02-14 11:01:00,22.0,12.0,-100.00,West,268,8.0,11.0,63,-99.99,,,-99.99,,2013-02-14 18:01:00,
2013-02-14 11:11:00,22.0,12.0,-100.00,West,268,8.0,11.0,63,-99.99,,,-99.99,,2013-02-14 18:11:00,
2013-02-14 11:52:00,24.0,13.0,-100.00,WSW,256,7.0,12.0,62,-99.99,,,-99.99,,2013-02-14 18:52:00,
2013-02-14 12:01:00,24.0,13.0,-100.00,WSW,256,7.0,12.0,62,-99.99,,,-99.99,,2013-02-14 19:01:00,
2013-02-14 12:11:00,24.0,13.0,-100.00,WSW,256,7.0,12.0,62,-99.99,,,-99.99,,2013-02-14 19:11:00,
2013-02-14 12:52:00,26.0,12.0,-100.00,West,276,13.0,17.0,54,-99.99,,,-99.99,,2013-02-14 19:52:00,
2013-02-14 13:01:00,26.0,12.0,-100.00,West,276,13.0,17.0,54,-99.99,,,-99.99,,2013-02-14 20:01:00,
2013-02-14 13:11:00,26.0,12.0,-100.00,West,276,13.0,17.0,54,-99.99,,,-99.99,,2013-02-14 20:11:00,
2013-02-14 13:52:00,27.0,11.0,-100.00,SW,234,8.0,13.0,51,-99.99,,,-99.99,,2013-02-14 20:52:00,
2013-02-14 14:02:00,27.0,11.0,-100.00,SW,234,8.0,13.0,51,-99.99,,,-99.99,,2013-02-14 21:02:00,
2013-02-14 14:11:00,27.0,11.0,-100.00,SW,234,8.0,13.0,51,-99.99,,,-99.99,,2013-02-14 21:11:00,
2013-02-14 14:52:00,26.0,15.0,-100.00,WSW,258,7.0,12.0,61,-99.99,,,-99.99,,2013-02-14 21:52:00,
2013-02-14 15:02:00,26.0,15.0,-100.00,WSW,258,7.0,12.0,61,-99.99,,,-99.99,,2013-02-14 22:02:00,
2013-02-14 15:11:00,26.0,15.0,-100.00,WSW,258,7.0,12.0,61,-99.99,,,-99.99,,2013-02-14 22:11:00,
2013-02-14 15:52:00,24.0,14.0,-100.00,West,264,9.0,13.0,65,-99.99,,,-99.99,,2013-02-14 22:52:00,
2013-02-14 16:01:00,24.0,14.0,-100.00,West,264,9.0,13.0,65,-99.99,,,-99.99,,2013-02-14 23:01:00,
2013-02-14 16:11:00,24.0,14.0,-100.00,West,264,9.0,13.0,65,-99.99,,,-99.99,,2013-02-14 23:11:00,
2013-02-14 16:52:00,23.0,14.0,-100.00,West,259,11.0,17.0,68,-99.99,,,-99.99,,2013-02-14 23:52:00,
2013-02-14 17:01:00,23.0,14.0,-100.00,West,259,11.0,17.0,68,-99.99,,,-99.99,,2013-02-15 00:01:00,
2013-02-14 17:11:00,23.0,14.0,-100.00,West,259,11.0,17.0,68,-99.99,,,-99.99,,2013-02-15 00:11:00,
2013-02-14 17:52:00,21.0,13.0,-100.00,West,259,10.0,13.0,70,-99.99,,,-99.99,,2013-02-15 00:52:00,
2013-02-14 18:01:00,21.0,13.0,-100.00,West,259,10.0,13.0,70,-99.99,,,-99.99,,2013-02-15 01:01:00,
2013-02-14 18:11:00,21.0,13.0,-100.00,West,259,10.0,13.0,70,-99.99,,,-99.99,,2013-02-15 01:11:00,
2013-02-14 18:52:00,20.0,13.0,-100.00,West,263,5.0,12.0,73,-99.99,,,-99.99,,2013-02-15 01:52:00,
2013-02-14 19:01:00,20.0,13.0,-100.00,West,263,5.0,12.0,73,-99.99,,,-99.99,,2013-02-15 02:01:00,
2013-02-14 19:11:00,20.0,13.0,-100.00,West,263,5.0,12.0,73,-99.99,,,-99.99,,2013-02-15 02:11:00,
2013-02-14 19:52:00,20.0,13.0,-100.00,West,279,8.0,14.0,75,-99.99,,,-99.99,,2013-02-15 02:52:00,
2013-02-14 20:02:00,20.0,13.0,-100.00,West,279,8.0,14.0,75,-99.99,,,-99.99,,2013-02-15 03:02:00,
2013-02-14 20:11:00,20.0,13.0,-100.00,West,279,8.0,14.0,75,-99.99,,,-99.99,,2013-02-15 03:11:00,
2013-02-14 20:52:00,19.0,13.0,-100.00,West,278,3.0,7.0,77,-99.99,,,-99.99,,2013-02-15 03:52:00,
2013-02-14 21:01:00,19.0,13.0,-100.00,West,278,3.0,7.0,77,-99.99,,,-99.99,,2013-02-15 04:01:00,
2013-02-14 21:11:00,19.0,13.0,-100.00,West,278,3.0,7.0,77,-99.99,,,-99.99,,2013-02-15 04:11:00,
2013-02-14 21:52:00,19.0,13.0,-100.00,West,266,2.0,4.0,80,-99.99,,,-99.99,,2013-02-15 04:52:00,
2013-02-14 22:01:00,19.0,13.0,-100.00,West,266,2.0,4.0,80,-99.99,,,-99.99,,2013-02-15 05:01:00,
2013-02-14 22:11:00,19.0,13.0,-100.00,West,266,2.0,4.0,80,-99.99,,,-99.99,,2013-02-15 05:11:00,
2013-02-14 22:52:00,18.0,14.0,-100.00,SSW,205,0.0,1.0,81,-99.99,,,-99.99,,2013-02-15 05:52:00,
2013-02-14 23:02:00,18.0,14.0,-100.00,SSW,205,0.0,1.0,81,-99.99,,,-99.99,,2013-02-15 06:02:00,
2013-02-14 23:11:00,18.0,14.0,-100.00,SSW,205,0.0,1.0,81,-99.99,,,-99.99,,2013-02-15 06:11:00,
2013-02-14 23:52:00,15.0,12.0,-100.00,SE,145,2.0,2.0,85,-99.99,,,-99.99,,2013-02-15 06:52:00,